createdAt,value
2019-01-11T00:01:13.622Z,19.07
2019-01-11T00:03:44.069Z,19.47
2019-01-11T00:06:14.499Z,19.33
2019-01-11T00:08:44.547Z,19.53
2019-01-11T00:11:14.636Z,19.53
2019-01-11T00:13:44.690Z,19.80
2019-01-11T00:16:15.084Z,20.80
2019-01-11T00:18:45.224Z,20.67
2019-01-11T00:21:15.322Z,22.40
2019-01-11T00:23:45.481Z,21.40
2019-01-11T00:26:15.575Z,22.07
2019-01-11T00:28:47.026Z,20.23
2019-01-11T00:31:17.547Z,20.17
2019-01-11T00:33:47.610Z,21.27
2019-01-11T00:36:18.077Z,20.87
2019-01-11T00:38:48.125Z,20.20
2019-01-11T00:41:18.287Z,20.93
2019-01-11T00:43:48.430Z,21.37
2019-01-11T00:46:18.912Z,21.43
2019-01-11T00:48:48.946Z,20.63
2019-01-11T00:51:19.030Z,21.30
2019-01-11T00:53:49.088Z,21.80
2019-01-11T00:56:19.158Z,21.97
2019-01-11T00:58:49.237Z,20.30
2019-01-11T01:01:19.316Z,19.97
2019-01-11T01:03:49.372Z,20.60
2019-01-11T01:06:19.860Z,21.93
2019-01-11T01:08:50.168Z,20.87
2019-01-11T01:11:21.042Z,20.77
2019-01-11T01:13:51.171Z,22.00
2019-01-11T01:16:21.985Z,21.43
2019-01-11T01:18:52.060Z,20.47
2019-01-11T01:21:22.156Z,21.63
2019-01-11T01:23:52.221Z,21.67
2019-01-11T01:26:22.311Z,20.67
2019-01-11T01:28:52.397Z,22.33
2019-01-11T01:31:22.551Z,21.23
2019-01-11T01:33:53.115Z,21.10
2019-01-11T01:36:23.570Z,21.13
2019-01-11T01:38:53.704Z,21.27
2019-01-11T01:41:23.787Z,21.00
2019-01-11T01:43:53.840Z,20.53
2019-01-11T01:46:23.952Z,22.43
2019-01-11T01:48:54.385Z,21.77
2019-01-11T01:51:24.822Z,21.47
2019-01-11T01:53:55.758Z,21.23
2019-01-11T01:56:26.204Z,21.90
2019-01-11T01:58:56.259Z,22.13
2019-01-11T02:01:26.348Z,20.90
2019-01-11T02:03:56.483Z,21.07
2019-01-11T02:06:26.966Z,22.10
2019-01-11T02:08:57.019Z,21.93
2019-01-11T02:11:27.176Z,21.67
2019-01-11T02:13:57.255Z,22.43
2019-01-11T02:16:27.424Z,22.43
2019-01-11T02:18:57.484Z,22.03
2019-01-11T02:21:27.570Z,23.73
2019-01-11T02:23:58.037Z,21.50
2019-01-11T02:26:28.116Z,22.50
2019-01-11T02:28:58.960Z,22.67
2019-01-11T02:31:29.173Z,23.43
2019-01-11T02:33:59.532Z,22.40
2019-01-11T02:36:29.790Z,22.60
2019-01-11T02:38:59.902Z,22.63
2019-01-11T02:41:30.014Z,23.27
2019-01-11T02:44:00.345Z,22.97
2019-01-11T02:46:30.872Z,23.27
2019-01-11T02:49:00.909Z,22.90
2019-01-11T02:51:31.000Z,24.10
2019-01-11T02:54:01.400Z,22.63
2019-01-11T02:56:31.558Z,23.27
2019-01-11T02:59:02.944Z,25.67
2019-01-11T03:01:33.328Z,25.47
2019-01-11T03:04:03.377Z,23.80
2019-01-11T03:06:33.796Z,25.30
2019-01-11T03:09:05.202Z,25.87
2019-01-11T03:11:35.756Z,25.67
2019-01-11T03:14:05.903Z,24.73
2019-01-11T03:16:36.087Z,24.33
2019-01-11T03:19:06.282Z,24.83
2019-01-11T03:21:36.418Z,24.30
2019-01-11T03:24:06.806Z,24.10
2019-01-11T03:26:36.956Z,23.67
2019-01-11T03:29:07.022Z,25.17
2019-01-11T03:31:37.183Z,25.10
2019-01-11T03:34:07.254Z,23.83
2019-01-11T03:36:37.411Z,26.80
2019-01-11T03:39:10.655Z,25.07
2019-01-11T03:42:05.544Z,23.57
2019-01-11T03:44:36.021Z,24.03
2019-01-11T03:47:06.139Z,23.87
2019-01-11T03:49:36.198Z,25.23
2019-01-11T03:52:06.604Z,26.30
2019-01-11T03:54:37.092Z,24.77
2019-01-11T03:57:07.189Z,23.37
2019-01-11T03:59:37.310Z,24.83
2019-01-11T04:02:07.423Z,24.53
2019-01-11T04:04:37.549Z,25.70
2019-01-11T04:07:07.640Z,25.23
2019-01-11T04:09:38.259Z,23.67
2019-01-11T04:12:08.714Z,22.47
2019-01-11T04:14:38.769Z,22.67
2019-01-11T04:17:09.257Z,23.23
2019-01-11T04:19:39.664Z,22.13
2019-01-11T04:22:29.814Z,21.23
2019-01-11T04:25:18.041Z,22.10
2019-01-11T04:27:48.182Z,21.00
2019-01-11T04:30:21.691Z,21.37
2019-01-11T04:32:52.019Z,21.23
2019-01-11T04:35:22.099Z,21.20
2019-01-11T04:37:52.270Z,22.50
2019-01-11T04:40:22.328Z,22.03
2019-01-11T04:42:52.416Z,22.40
2019-01-11T04:45:22.467Z,22.00
2019-01-11T04:47:52.543Z,23.37
2019-01-11T04:50:22.895Z,23.87
2019-01-11T04:52:52.969Z,25.27
2019-01-11T04:55:23.030Z,21.73
2019-01-11T04:57:53.856Z,24.60
2019-01-11T05:00:25.442Z,22.50
2019-01-11T05:02:55.856Z,23.30
2019-01-11T05:05:25.908Z,23.23
2019-01-11T05:07:56.177Z,23.77
2019-01-11T05:10:26.354Z,24.50
2019-01-11T05:12:58.452Z,23.57
2019-01-11T05:15:28.526Z,22.80
2019-01-11T05:17:58.701Z,23.90
2019-01-11T05:20:28.902Z,22.07
2019-01-11T05:22:59.063Z,21.73
2019-01-11T05:25:29.174Z,20.60
2019-01-11T05:27:59.269Z,21.73
2019-01-11T05:30:29.398Z,20.57
2019-01-11T05:32:59.792Z,21.00
2019-01-11T05:35:29.844Z,21.53
2019-01-11T05:37:59.922Z,18.97
2019-01-11T05:40:30.312Z,20.83
2019-01-11T05:43:00.398Z,17.93
2019-01-11T05:45:30.450Z,18.23
2019-01-11T05:48:00.640Z,18.03
2019-01-11T05:50:30.699Z,17.93
2019-01-11T05:53:00.794Z,18.50
2019-01-11T05:55:47.674Z,16.33
2019-01-11T05:58:43.001Z,18.30
2019-01-11T06:01:14.650Z,19.20
2019-01-11T06:03:44.808Z,19.30
2019-01-11T06:06:15.024Z,18.77
2019-01-11T06:08:45.243Z,17.03
2019-01-11T06:11:15.633Z,18.77
2019-01-11T06:13:45.817Z,18.33
2019-01-11T06:16:16.175Z,18.00
2019-01-11T06:18:46.337Z,18.40
2019-01-11T06:21:16.731Z,16.93
2019-01-11T06:23:46.886Z,18.00
2019-01-11T06:26:17.074Z,17.97
2019-01-11T06:28:47.231Z,17.50
2019-01-11T06:31:17.697Z,17.23
2019-01-11T06:33:47.792Z,18.07
2019-01-11T06:36:17.945Z,15.87
2019-01-11T06:38:48.042Z,16.53
2019-01-11T06:41:18.536Z,16.13
2019-01-11T06:43:50.895Z,16.47
2019-01-11T06:46:22.788Z,15.73
2019-01-11T06:48:52.990Z,15.47
2019-01-11T06:51:23.234Z,15.90
2019-01-11T06:53:53.459Z,16.73
2019-01-11T06:56:23.564Z,15.57
2019-01-11T06:58:53.707Z,15.10
2019-01-11T07:01:23.934Z,14.23
2019-01-11T07:03:54.179Z,14.03
2019-01-11T07:06:24.254Z,12.53
2019-01-11T07:08:54.493Z,13.17
2019-01-11T07:11:24.554Z,12.77
2019-01-11T07:13:54.724Z,13.77
2019-01-11T07:16:24.858Z,12.77
2019-01-11T07:18:55.126Z,13.73
2019-01-11T07:21:25.866Z,12.03
2019-01-11T07:23:56.135Z,11.17
2019-01-11T07:26:26.282Z,13.37
2019-01-11T07:28:56.359Z,13.97
2019-01-11T07:31:30.046Z,13.53
2019-01-11T07:34:00.350Z,13.97
2019-01-11T07:36:32.935Z,14.43
2019-01-11T07:39:04.768Z,14.03
2019-01-11T07:41:34.988Z,14.50
2019-01-11T07:44:05.500Z,17.77
2019-01-11T07:46:35.662Z,16.23
2019-01-11T07:49:06.542Z,14.87
2019-01-11T07:51:36.696Z,14.80
2019-01-11T07:54:07.210Z,14.77
2019-01-11T07:56:37.379Z,13.30
2019-01-11T07:59:07.512Z,12.63
2019-01-11T08:01:37.634Z,10.87
2019-01-11T08:04:07.821Z,11.57
2019-01-11T08:06:37.927Z,10.60
2019-01-11T08:09:09.357Z,9.90
2019-01-11T08:11:39.484Z,11.33
2019-01-11T08:14:10.376Z,10.53
2019-01-11T08:16:40.425Z,9.27
2019-01-11T08:19:10.663Z,9.30
2019-01-11T08:21:41.078Z,9.83
2019-01-11T08:24:11.433Z,9.37
2019-01-11T08:26:41.516Z,8.97
2019-01-11T08:29:11.932Z,8.53
2019-01-11T08:31:42.425Z,8.43
2019-01-11T08:34:12.491Z,8.63
2019-01-11T08:36:42.619Z,8.80
2019-01-11T08:39:12.707Z,9.53
2019-01-11T08:41:42.774Z,11.40
2019-01-11T08:44:12.896Z,10.43
2019-01-11T08:46:43.605Z,11.03
2019-01-11T08:49:14.069Z,11.50
2019-01-11T08:51:45.337Z,11.50
2019-01-11T08:54:15.528Z,12.17
2019-01-11T08:56:45.705Z,11.63
2019-01-11T08:59:15.810Z,12.57
2019-01-11T09:01:45.973Z,11.80
2019-01-11T09:04:16.403Z,12.13
2019-01-11T09:06:46.915Z,11.30
2019-01-11T09:09:17.008Z,10.70
2019-01-11T09:11:47.110Z,10.80
2019-01-11T09:14:36.450Z,9.70
2019-01-11T09:17:06.524Z,9.60
2019-01-11T09:19:36.580Z,9.77
2019-01-11T09:22:06.742Z,9.17
2019-01-11T09:24:37.557Z,9.40
2019-01-11T09:27:07.693Z,8.00
2019-01-11T09:29:37.757Z,7.37
2019-01-11T09:32:07.909Z,7.53
2019-01-11T09:34:38.301Z,8.37
2019-01-11T09:37:08.402Z,7.37
2019-01-11T09:39:38.480Z,7.10
2019-01-11T09:42:09.280Z,8.33
2019-01-11T09:44:39.349Z,7.20
2019-01-11T09:47:09.843Z,7.03
2019-01-11T09:49:40.059Z,7.10
2019-01-11T09:52:10.154Z,6.47
2019-01-11T09:54:40.251Z,6.77
2019-01-11T09:57:10.782Z,6.47
2019-01-11T09:59:41.134Z,6.57
2019-01-11T10:02:25.310Z,6.37
2019-01-11T10:04:55.530Z,6.23
2019-01-11T10:07:27.053Z,6.23
2019-01-11T10:09:57.243Z,5.90
2019-01-11T10:12:27.392Z,6.63
2019-01-11T10:14:57.518Z,6.13
2019-01-11T10:17:27.963Z,6.60
2019-01-11T10:19:58.362Z,5.67
2019-01-11T10:22:28.788Z,6.20
2019-01-11T10:24:58.865Z,6.63
2019-01-11T10:27:29.481Z,5.63
2019-01-11T10:30:00.602Z,5.90
2019-01-11T10:32:31.238Z,6.10
2019-01-11T10:35:01.455Z,5.20
2019-01-11T10:37:31.503Z,5.73
2019-01-11T10:40:02.249Z,5.20
2019-01-11T10:42:32.398Z,5.60
2019-01-11T10:45:02.639Z,5.40
2019-01-11T10:47:32.788Z,4.90
2019-01-11T10:50:03.751Z,5.57
2019-01-11T10:52:39.773Z,5.10
2019-01-11T10:55:11.251Z,4.20
2019-01-11T10:57:41.869Z,4.23
2019-01-11T11:00:18.508Z,4.90
2019-01-11T11:02:49.177Z,5.10
2019-01-11T11:05:31.629Z,4.70
2019-01-11T11:08:01.719Z,4.83
2019-01-11T11:10:32.273Z,4.57
2019-01-11T11:13:02.635Z,4.57
2019-01-11T11:15:32.889Z,4.37
2019-01-11T11:18:03.493Z,5.20
2019-01-11T11:20:33.636Z,4.10
2019-01-11T11:23:03.857Z,4.67
2019-01-11T11:25:33.939Z,4.60
2019-01-11T11:28:04.018Z,4.60
2019-01-11T11:30:34.163Z,4.30
2019-01-11T11:35:51.792Z,4.83
2019-01-11T11:38:23.027Z,4.43
2019-01-11T11:40:53.163Z,3.80
2019-01-11T11:43:23.213Z,4.73
2019-01-11T11:45:53.462Z,3.60
2019-01-11T11:48:31.509Z,3.15
2019-01-11T11:51:01.605Z,3.80
2019-01-11T11:53:33.063Z,3.53
2019-01-11T11:56:03.416Z,2.77
2019-01-11T11:58:33.650Z,3.10
2019-01-11T12:01:23.044Z,2.77
2019-01-11T12:03:53.397Z,2.40
2019-01-11T12:06:23.591Z,2.00
2019-01-11T12:08:53.806Z,2.10
2019-01-11T12:11:23.944Z,2.10
2019-01-11T12:14:14.712Z,2.20
2019-01-11T12:16:44.784Z,2.20
2019-01-11T12:19:15.793Z,1.90
2019-01-11T12:21:47.891Z,2.60
2019-01-11T12:24:18.211Z,1.47
2019-01-11T12:26:48.638Z,1.97
2019-01-11T12:29:25.672Z,1.90
2019-01-11T12:31:55.835Z,2.10
2019-01-11T12:34:25.898Z,1.70
2019-01-11T12:36:56.147Z,1.30
2019-01-11T12:39:26.218Z,1.93
2019-01-11T12:41:56.358Z,1.83
2019-01-11T12:44:26.509Z,1.50
2019-01-11T12:46:56.947Z,1.47
2019-01-11T12:49:27.215Z,1.93
2019-01-11T12:51:57.303Z,1.73
2019-01-11T12:54:27.641Z,2.17
2019-01-11T12:56:57.767Z,1.70
2019-01-11T12:59:27.861Z,1.80
2019-01-11T13:01:59.021Z,1.60
2019-01-11T13:04:29.114Z,1.77
2019-01-11T13:06:59.275Z,2.00
2019-01-11T13:09:29.436Z,1.73
2019-01-11T13:12:12.814Z,1.30
2019-01-11T13:14:43.132Z,1.37
2019-01-11T13:17:14.083Z,1.73
2019-01-11T13:19:44.231Z,1.40
2019-01-11T13:22:14.342Z,1.33
2019-01-11T13:27:26.201Z,1.20
2019-01-11T13:29:56.253Z,1.40
2019-01-11T13:32:27.110Z,2.27
2019-01-11T13:34:57.272Z,2.77
2019-01-11T13:37:27.417Z,1.90
2019-01-11T13:39:56.433Z,1.40
2019-01-11T13:42:26.873Z,1.73
2019-01-11T13:44:56.910Z,1.97
2019-01-11T13:47:26.982Z,2.00
2019-01-11T13:49:57.027Z,1.63
2019-01-11T13:52:46.136Z,1.40
2019-01-11T13:55:17.505Z,1.93
2019-01-11T13:57:47.573Z,2.10
2019-01-11T14:00:18.470Z,1.93
2019-01-11T14:02:49.169Z,1.83
2019-01-11T14:05:19.228Z,1.90
2019-01-11T14:07:50.148Z,1.47
2019-01-11T14:10:20.186Z,2.10
2019-01-11T14:12:50.339Z,1.77
2019-01-11T14:15:20.422Z,1.97
2019-01-11T14:17:50.509Z,1.90
2019-01-11T14:20:20.559Z,1.83
2019-01-11T14:22:51.598Z,2.10
2019-01-11T14:25:21.733Z,1.90
2019-01-11T14:27:51.816Z,1.67
2019-01-11T14:30:21.945Z,2.10
2019-01-11T14:32:52.136Z,1.67
2019-01-11T14:35:22.194Z,1.70
2019-01-11T14:37:53.576Z,1.57
2019-01-11T14:40:23.720Z,2.50
2019-01-11T14:42:54.130Z,3.03
2019-01-11T14:45:24.193Z,2.27
2019-01-11T14:47:54.634Z,2.27
2019-01-11T14:50:43.840Z,1.67
2019-01-11T14:53:13.949Z,1.27
2019-01-11T14:55:44.063Z,2.07
2019-01-11T14:58:14.128Z,1.13
2019-01-11T15:00:44.462Z,2.27
2019-01-11T15:03:14.549Z,1.67
2019-01-11T15:05:43.517Z,1.80
2019-01-11T15:08:13.672Z,1.50
2019-01-11T15:10:43.821Z,1.33
2019-01-11T15:13:14.273Z,1.20
2019-01-11T15:15:44.381Z,1.53
2019-01-11T15:18:14.540Z,1.63
2019-01-11T15:20:44.632Z,1.60
2019-01-11T15:23:14.971Z,1.77
2019-01-11T15:25:45.074Z,1.93
2019-01-11T15:28:15.257Z,2.00
2019-01-11T15:30:46.611Z,1.17
2019-01-11T15:33:35.819Z,1.53
2019-01-11T15:36:06.264Z,1.67
2019-01-11T15:38:37.096Z,1.40
2019-01-11T15:41:07.207Z,1.20
2019-01-11T15:43:38.312Z,1.30
2019-01-11T15:46:14.924Z,1.10
2019-01-11T15:48:40.191Z,1.30
2019-01-11T15:51:10.294Z,1.20
2019-01-11T15:53:41.090Z,1.07
2019-01-11T15:56:12.838Z,1.23
2019-01-11T15:58:42.993Z,1.50
2019-01-11T16:01:25.312Z,1.10
2019-01-11T16:03:55.526Z,1.00
2019-01-11T16:06:28.156Z,0.87
2019-01-11T16:12:33.481Z,1.00
2019-01-11T16:15:31.033Z,1.17
2019-01-11T16:18:04.300Z,0.90
2019-01-11T16:20:54.360Z,1.07
2019-01-11T16:23:24.908Z,1.23
2019-01-11T16:25:55.301Z,1.07
2019-01-11T16:28:25.504Z,0.90
2019-01-11T16:30:55.772Z,0.77
2019-01-11T16:33:33.335Z,1.00
2019-01-11T16:36:03.507Z,1.93
2019-01-11T16:38:33.565Z,1.00
2019-01-11T16:41:04.319Z,1.10
2019-01-11T16:43:34.434Z,1.00
2019-01-11T16:46:20.596Z,1.50
2019-01-11T16:48:50.832Z,1.27
2019-01-11T16:51:20.996Z,1.20
2019-01-11T16:53:51.636Z,1.00
2019-01-11T16:56:21.745Z,1.03
2019-01-11T16:58:51.982Z,1.30
2019-01-11T17:01:22.194Z,1.00
2019-01-11T17:03:52.468Z,1.20
2019-01-11T17:06:22.972Z,1.30
2019-01-11T17:08:53.050Z,1.60
2019-01-11T17:11:23.318Z,1.50
2019-01-11T17:13:53.449Z,1.33
2019-01-11T17:16:22.987Z,1.77
2019-01-11T17:18:53.117Z,1.80
2019-01-11T17:21:23.364Z,2.30
2019-01-11T17:23:53.424Z,2.50
2019-01-11T17:26:23.530Z,2.30
2019-01-11T17:28:53.579Z,2.23
2019-01-11T17:31:23.836Z,2.70
2019-01-11T17:33:55.092Z,1.60
2019-01-11T17:36:25.685Z,1.90
2019-01-11T17:38:56.560Z,1.40
2019-01-11T17:41:26.672Z,1.80
2019-01-11T17:43:56.711Z,1.23
2019-01-11T17:46:32.004Z,1.27
2019-01-11T17:49:02.048Z,2.07
2019-01-11T17:51:33.496Z,2.07
2019-01-11T17:54:03.648Z,1.73
2019-01-11T17:56:33.732Z,1.60
2019-01-11T18:01:45.094Z,1.83
2019-01-11T18:04:15.137Z,1.30
2019-01-11T18:06:45.586Z,1.43
2019-01-11T18:09:15.646Z,1.00
2019-01-11T18:11:45.872Z,1.37
2019-01-11T18:14:16.067Z,1.57
2019-01-11T18:16:46.311Z,1.30
2019-01-11T18:19:16.486Z,1.20
2019-01-11T18:21:47.635Z,0.97
2019-01-11T18:24:17.878Z,1.50
2019-01-11T18:26:48.121Z,1.23
2019-01-11T18:29:18.654Z,1.10
2019-01-11T18:31:49.903Z,1.03
2019-01-11T18:34:19.976Z,1.07
2019-01-11T18:36:50.206Z,1.20
2019-01-11T18:39:21.314Z,1.10
2019-01-11T18:41:51.483Z,1.30
2019-01-11T18:44:21.562Z,1.30
2019-01-11T18:46:51.719Z,1.30
2019-01-11T18:49:22.142Z,1.10
2019-01-11T18:51:52.249Z,1.23
2019-01-11T18:54:22.475Z,1.30
2019-01-11T18:56:52.901Z,1.57
2019-01-11T18:59:23.130Z,1.30
2019-01-11T19:01:53.294Z,1.70
2019-01-11T19:04:23.737Z,1.90
2019-01-11T19:06:53.831Z,1.77
2019-01-11T19:09:24.290Z,1.63
2019-01-11T19:11:54.833Z,1.27
2019-01-11T19:14:34.483Z,1.83
2019-01-11T19:17:04.658Z,1.33
2019-01-11T19:19:34.848Z,1.57
2019-01-11T19:22:05.455Z,1.80
2019-01-11T19:24:35.772Z,1.60
2019-01-11T19:27:06.512Z,1.83
2019-01-11T19:29:43.608Z,2.40
2019-01-11T19:32:13.771Z,2.00
2019-01-11T19:34:44.379Z,2.77
2019-01-11T19:37:14.546Z,2.33
2019-01-11T19:39:44.600Z,1.90
2019-01-11T19:42:14.907Z,3.33
2019-01-11T19:44:45.054Z,2.33
2019-01-11T19:47:15.137Z,1.87
2019-01-11T19:49:45.311Z,4.27
2019-01-11T19:52:15.497Z,3.13
2019-01-11T19:54:45.655Z,2.73
2019-01-11T20:00:02.904Z,4.00
2019-01-11T20:02:34.668Z,3.03
2019-01-11T20:05:06.408Z,2.20
2019-01-11T20:07:36.663Z,2.83
2019-01-11T20:10:19.989Z,2.90
2019-01-11T20:12:50.235Z,2.93
2019-01-11T20:15:20.452Z,2.83
2019-01-11T20:17:50.831Z,2.30
2019-01-11T20:20:21.175Z,2.33
2019-01-11T20:25:39.075Z,2.90
2019-01-11T20:28:09.766Z,2.50
2019-01-11T20:30:40.285Z,2.97
2019-01-11T20:33:10.352Z,2.90
2019-01-11T20:35:40.472Z,3.20
2019-01-11T20:38:17.905Z,3.10
2019-01-11T20:40:48.086Z,3.63
2019-01-11T20:43:18.149Z,3.27
2019-01-11T20:45:48.654Z,3.23
2019-01-11T20:48:18.786Z,3.40
2019-01-11T20:50:49.267Z,3.37
2019-01-11T20:53:21.029Z,2.97
2019-01-11T20:55:51.206Z,2.00
2019-01-11T20:58:21.743Z,2.10
2019-01-11T21:00:52.248Z,2.07
2019-01-11T21:03:22.310Z,1.70
2019-01-11T21:05:52.574Z,1.90
2019-01-11T21:08:22.796Z,1.70
2019-01-11T21:10:53.015Z,2.07
2019-01-11T21:13:23.168Z,2.47
2019-01-11T21:15:53.318Z,2.70
2019-01-11T21:18:23.462Z,1.80
2019-01-11T21:21:06.427Z,1.83
2019-01-11T21:23:36.594Z,1.80
2019-01-11T21:26:07.059Z,1.80
2019-01-11T21:28:37.489Z,1.73
2019-01-11T21:31:07.571Z,1.83
2019-01-11T21:33:37.721Z,1.30
2019-01-11T21:36:08.812Z,1.20
2019-01-11T21:38:38.960Z,1.03
2019-01-11T21:41:09.040Z,1.20
2019-01-11T21:43:39.111Z,1.10
2019-01-11T21:46:09.207Z,1.20
2019-01-11T21:48:39.393Z,1.50
2019-01-11T21:51:10.025Z,1.50
2019-01-11T21:53:40.262Z,1.70
2019-01-11T21:56:10.503Z,1.70
2019-01-11T21:58:41.201Z,1.80
2019-01-11T22:01:11.448Z,1.87
2019-01-11T22:04:00.991Z,1.90
2019-01-11T22:06:31.491Z,1.90
2019-01-11T22:09:01.677Z,1.53
2019-01-11T22:11:34.061Z,2.13
2019-01-11T22:14:04.235Z,1.30
2019-01-11T22:16:34.668Z,2.13
2019-01-11T22:19:05.321Z,2.00
2019-01-11T22:21:35.743Z,2.13
2019-01-11T22:24:06.210Z,2.17
2019-01-11T22:26:36.754Z,1.90
2019-01-11T22:29:08.087Z,2.07
2019-01-11T22:31:38.578Z,2.00
2019-01-11T22:34:08.665Z,2.20
2019-01-11T22:36:38.918Z,2.40
2019-01-11T22:39:09.499Z,2.40
2019-01-11T22:41:39.562Z,2.00
2019-01-11T22:44:09.766Z,2.30
2019-01-11T22:49:20.802Z,2.77
2019-01-11T22:51:50.919Z,2.30
2019-01-11T22:54:21.040Z,2.37
2019-01-11T22:56:51.418Z,2.70
2019-01-11T22:59:21.532Z,2.10
2019-01-11T23:02:25.816Z,2.00
2019-01-11T23:04:56.239Z,1.60
2019-01-11T23:07:43.339Z,1.70
2019-01-11T23:10:31.550Z,1.47
2019-01-11T23:13:05.153Z,1.77
2019-01-11T23:15:40.578Z,1.60
2019-01-11T23:18:16.352Z,1.73
2019-01-11T23:20:48.004Z,1.80
2019-01-11T23:23:21.486Z,1.87
2019-01-11T23:25:51.698Z,1.87
2019-01-11T23:28:22.234Z,1.67
2019-01-11T23:30:52.355Z,2.30
2019-01-11T23:33:22.512Z,2.13
2019-01-11T23:38:41.634Z,3.00
2019-01-11T23:41:11.707Z,2.97
2019-01-11T23:43:43.035Z,3.70
2019-01-11T23:46:13.280Z,3.17
2019-01-11T23:48:43.402Z,2.60
2019-01-11T23:51:13.439Z,2.30
2019-01-11T23:53:43.607Z,2.50
2019-01-11T23:56:13.672Z,2.30
2019-01-11T23:58:43.995Z,2.20
